sensor_id;sensor_type;location;lat;lon;timestamp;P1;durP1;ratioP1;P2;durP2;ratioP2
34144;SDS011;69555;53.014;8.886;2023-04-24T00:00:15;3.83;;;1.63;;
34144;SDS011;69555;53.014;8.886;2023-04-24T00:02:42;3.65;;;1.95;;
34144;SDS011;69555;53.014;8.886;2023-04-24T00:05:12;3.03;;;2.50;;
34144;SDS011;69555;53.014;8.886;2023-04-24T00:07:42;2.55;;;2.08;;
34144;SDS011;69555;53.014;8.886;2023-04-24T00:10:10;2.90;;;2.10;;
34144;SDS011;69555;53.014;8.886;2023-04-24T00:12:36;3.67;;;2.17;;
34144;SDS011;69555;53.014;8.886;2023-04-24T00:15:03;2.88;;;2.00;;
34144;SDS011;69555;53.014;8.886;2023-04-24T00:17:29;2.20;;;2.00;;
34144;SDS011;69555;53.014;8.886;2023-04-24T00:19:57;2.88;;;1.98;;
34144;SDS011;69555;53.014;8.886;2023-04-24T00:22:27;3.95;;;2.00;;
34144;SDS011;69555;53.014;8.886;2023-04-24T00:24:54;4.75;;;2.15;;
34144;SDS011;69555;53.014;8.886;2023-04-24T00:27:21;4.05;;;2.13;;
34144;SDS011;69555;53.014;8.886;2023-04-24T00:29:48;2.90;;;2.35;;
34144;SDS011;69555;53.014;8.886;2023-04-24T00:32:13;2.28;;;2.08;;
34144;SDS011;69555;53.014;8.886;2023-04-24T00:34:39;4.15;;;2.40;;
34144;SDS011;69555;53.014;8.886;2023-04-24T00:37:05;3.35;;;1.85;;
34144;SDS011;69555;53.014;8.886;2023-04-24T00:39:31;2.47;;;2.10;;
34144;SDS011;69555;53.014;8.886;2023-04-24T00:41:57;2.22;;;2.03;;
34144;SDS011;69555;53.014;8.886;2023-04-24T00:44:23;4.32;;;2.25;;
34144;SDS011;69555;53.014;8.886;2023-04-24T00:46:50;2.17;;;1.77;;
34144;SDS011;69555;53.014;8.886;2023-04-24T00:49:19;3.08;;;2.25;;
34144;SDS011;69555;53.014;8.886;2023-04-24T00:51:47;2.47;;;2.28;;
34144;SDS011;69555;53.014;8.886;2023-04-24T00:54:14;6.85;;;3.15;;
34144;SDS011;69555;53.014;8.886;2023-04-24T00:56:40;2.20;;;2.00;;
34144;SDS011;69555;53.014;8.886;2023-04-24T00:59:07;2.35;;;2.15;;
34144;SDS011;69555;53.014;8.886;2023-04-24T01:01:34;2.25;;;2.05;;
34144;SDS011;69555;53.014;8.886;2023-04-24T01:04:01;3.17;;;2.13;;
34144;SDS011;69555;53.014;8.886;2023-04-24T01:06:29;2.25;;;2.03;;
34144;SDS011;69555;53.014;8.886;2023-04-24T01:08:56;4.63;;;2.25;;
34144;SDS011;69555;53.014;8.886;2023-04-24T01:11:23;2.90;;;2.10;;
34144;SDS011;69555;53.014;8.886;2023-04-24T01:13:50;3.42;;;2.47;;
34144;SDS011;69555;53.014;8.886;2023-04-24T01:16:17;2.65;;;2.30;;
34144;SDS011;69555;53.014;8.886;2023-04-24T01:18:44;3.65;;;2.50;;
34144;SDS011;69555;53.014;8.886;2023-04-24T01:21:10;3.28;;;2.97;;
34144;SDS011;69555;53.014;8.886;2023-04-24T01:23:39;4.22;;;2.67;;
34144;SDS011;69555;53.014;8.886;2023-04-24T01:26:05;3.70;;;2.10;;
34144;SDS011;69555;53.014;8.886;2023-04-24T01:28:30;2.38;;;2.17;;
34144;SDS011;69555;53.014;8.886;2023-04-24T01:30:56;3.22;;;1.73;;
34144;SDS011;69555;53.014;8.886;2023-04-24T01:33:23;2.90;;;2.35;;
34144;SDS011;69555;53.014;8.886;2023-04-24T01:35:49;4.03;;;2.10;;
34144;SDS011;69555;53.014;8.886;2023-04-24T01:38:15;2.95;;;2.00;;
34144;SDS011;69555;53.014;8.886;2023-04-24T01:40:40;2.45;;;2.20;;
34144;SDS011;69555;53.014;8.886;2023-04-24T01:43:06;2.40;;;2.20;;
34144;SDS011;69555;53.014;8.886;2023-04-24T01:45:32;2.33;;;2.08;;
34144;SDS011;69555;53.014;8.886;2023-04-24T01:47:58;3.10;;;2.20;;
34144;SDS011;69555;53.014;8.886;2023-04-24T01:50:25;1.95;;;1.77;;
34144;SDS011;69555;53.014;8.886;2023-04-24T01:52:50;2.20;;;2.00;;
34144;SDS011;69555;53.014;8.886;2023-04-24T01:55:16;2.30;;;1.85;;
34144;SDS011;69555;53.014;8.886;2023-04-24T01:57:41;2.92;;;1.65;;
34144;SDS011;69555;53.014;8.886;2023-04-24T02:00:08;3.00;;;1.95;;
34144;SDS011;69555;53.014;8.886;2023-04-24T02:02:37;2.60;;;1.77;;
34144;SDS011;69555;53.014;8.886;2023-04-24T02:05:06;1.92;;;1.73;;
34144;SDS011;69555;53.014;8.886;2023-04-24T02:07:32;2.05;;;1.77;;
34144;SDS011;69555;53.014;8.886;2023-04-24T02:09:59;2.75;;;1.65;;
34144;SDS011;69555;53.014;8.886;2023-04-24T02:12:24;4.07;;;1.95;;
34144;SDS011;69555;53.014;8.886;2023-04-24T02:14:50;2.08;;;1.50;;
34144;SDS011;69555;53.014;8.886;2023-04-24T02:17:15;3.95;;;1.83;;
34144;SDS011;69555;53.014;8.886;2023-04-24T02:19:41;2.13;;;1.90;;
34144;SDS011;69555;53.014;8.886;2023-04-24T02:22:08;2.30;;;2.08;;
34144;SDS011;69555;53.014;8.886;2023-04-24T02:24:33;2.17;;;1.90;;
34144;SDS011;69555;53.014;8.886;2023-04-24T02:26:59;2.35;;;1.60;;
34144;SDS011;69555;53.014;8.886;2023-04-24T02:29:25;3.40;;;2.35;;
34144;SDS011;69555;53.014;8.886;2023-04-24T02:31:50;2.20;;;1.67;;
34144;SDS011;69555;53.014;8.886;2023-04-24T02:34:17;2.28;;;2.00;;
34144;SDS011;69555;53.014;8.886;2023-04-24T02:36:44;2.88;;;2.03;;
34144;SDS011;69555;53.014;8.886;2023-04-24T02:39:09;3.92;;;2.45;;
34144;SDS011;69555;53.014;8.886;2023-04-24T02:41:36;3.78;;;2.45;;
34144;SDS011;69555;53.014;8.886;2023-04-24T02:44:03;3.53;;;2.45;;
34144;SDS011;69555;53.014;8.886;2023-04-24T02:46:28;2.65;;;2.30;;
34144;SDS011;69555;53.014;8.886;2023-04-24T02:48:53;3.70;;;2.50;;
34144;SDS011;69555;53.014;8.886;2023-04-24T02:51:19;5.30;;;2.20;;
34144;SDS011;69555;53.014;8.886;2023-04-24T02:53:45;3.33;;;2.65;;
34144;SDS011;69555;53.014;8.886;2023-04-24T02:56:12;2.40;;;2.17;;
34144;SDS011;69555;53.014;8.886;2023-04-24T02:58:39;3.05;;;2.40;;
34144;SDS011;69555;53.014;8.886;2023-04-24T03:01:04;3.10;;;2.35;;
34144;SDS011;69555;53.014;8.886;2023-04-24T03:03:30;3.78;;;2.75;;
34144;SDS011;69555;53.014;8.886;2023-04-24T03:05:55;2.22;;;1.98;;
34144;SDS011;69555;53.014;8.886;2023-04-24T03:08:22;2.45;;;2.25;;
34144;SDS011;69555;53.014;8.886;2023-04-24T03:10:48;4.35;;;2.60;;
34144;SDS011;69555;53.014;8.886;2023-04-24T03:13:16;2.85;;;2.30;;
34144;SDS011;69555;53.014;8.886;2023-04-24T03:15:41;5.68;;;2.55;;
34144;SDS011;69555;53.014;8.886;2023-04-24T03:18:08;5.57;;;2.47;;
34144;SDS011;69555;53.014;8.886;2023-04-24T03:20:33;3.20;;;2.75;;
34144;SDS011;69555;53.014;8.886;2023-04-24T03:22:59;14.70;;;2.38;;
34144;SDS011;69555;53.014;8.886;2023-04-24T03:25:25;2.75;;;2.40;;
34144;SDS011;69555;53.014;8.886;2023-04-24T03:27:52;4.28;;;2.42;;
34144;SDS011;69555;53.014;8.886;2023-04-24T03:30:19;4.78;;;2.13;;
34144;SDS011;69555;53.014;8.886;2023-04-24T03:32:45;2.58;;;2.08;;
34144;SDS011;69555;53.014;8.886;2023-04-24T03:35:10;3.30;;;1.60;;
34144;SDS011;69555;53.014;8.886;2023-04-24T03:37:37;2.88;;;2.40;;
34144;SDS011;69555;53.014;8.886;2023-04-24T03:40:02;3.22;;;2.13;;
34144;SDS011;69555;53.014;8.886;2023-04-24T03:42:30;2.70;;;1.98;;
34144;SDS011;69555;53.014;8.886;2023-04-24T03:44:55;3.35;;;2.05;;
34144;SDS011;69555;53.014;8.886;2023-04-24T03:47:20;2.40;;;1.92;;
34144;SDS011;69555;53.014;8.886;2023-04-24T03:49:46;3.88;;;2.28;;
34144;SDS011;69555;53.014;8.886;2023-04-24T03:52:11;7.03;;;1.73;;
34144;SDS011;69555;53.014;8.886;2023-04-24T03:54:37;3.08;;;1.83;;
34144;SDS011;69555;53.014;8.886;2023-04-24T03:57:03;3.00;;;1.60;;
34144;SDS011;69555;53.014;8.886;2023-04-24T03:59:29;3.00;;;1.48;;
34144;SDS011;69555;53.014;8.886;2023-04-24T04:01:55;4.43;;;1.83;;
34144;SDS011;69555;53.014;8.886;2023-04-24T04:04:20;2.38;;;1.60;;
34144;SDS011;69555;53.014;8.886;2023-04-24T04:06:46;2.05;;;1.50;;
34144;SDS011;69555;53.014;8.886;2023-04-24T04:09:11;1.55;;;1.45;;
34144;SDS011;69555;53.014;8.886;2023-04-24T04:11:38;3.85;;;1.90;;
34144;SDS011;69555;53.014;8.886;2023-04-24T04:14:05;2.38;;;1.40;;
34144;SDS011;69555;53.014;8.886;2023-04-24T04:16:30;4.10;;;1.80;;
34144;SDS011;69555;53.014;8.886;2023-04-24T04:18:56;3.95;;;1.50;;
34144;SDS011;69555;53.014;8.886;2023-04-24T04:21:21;1.70;;;1.40;;
34144;SDS011;69555;53.014;8.886;2023-04-24T04:23:47;3.03;;;1.63;;
34144;SDS011;69555;53.014;8.886;2023-04-24T04:26:14;2.55;;;1.58;;
34144;SDS011;69555;53.014;8.886;2023-04-24T04:28:40;3.05;;;1.45;;
34144;SDS011;69555;53.014;8.886;2023-04-24T04:31:06;1.40;;;1.30;;
34144;SDS011;69555;53.014;8.886;2023-04-24T04:33:32;4.68;;;1.98;;
34144;SDS011;69555;53.014;8.886;2023-04-24T04:35:58;3.85;;;1.25;;
34144;SDS011;69555;53.014;8.886;2023-04-24T04:38:26;3.05;;;1.70;;
34144;SDS011;69555;53.014;8.886;2023-04-24T04:43:22;3.40;;;2.38;;
34144;SDS011;69555;53.014;8.886;2023-04-24T04:45:50;6.07;;;2.10;;
34144;SDS011;69555;53.014;8.886;2023-04-24T04:48:17;3.65;;;1.90;;
34144;SDS011;69555;53.014;8.886;2023-04-24T04:50:43;3.08;;;2.17;;
34144;SDS011;69555;53.014;8.886;2023-04-24T04:53:09;2.70;;;1.85;;
34144;SDS011;69555;53.014;8.886;2023-04-24T04:55:35;2.30;;;2.00;;
34144;SDS011;69555;53.014;8.886;2023-04-24T04:58:02;2.58;;;2.00;;
34144;SDS011;69555;53.014;8.886;2023-04-24T05:00:29;2.83;;;2.33;;
34144;SDS011;69555;53.014;8.886;2023-04-24T05:03:00;2.38;;;1.80;;
34144;SDS011;69555;53.014;8.886;2023-04-24T05:05:27;4.72;;;2.80;;
34144;SDS011;69555;53.014;8.886;2023-04-24T05:07:52;3.85;;;2.28;;
34144;SDS011;69555;53.014;8.886;2023-04-24T05:10:19;3.58;;;1.92;;
34144;SDS011;69555;53.014;8.886;2023-04-24T05:12:44;5.22;;;1.90;;
34144;SDS011;69555;53.014;8.886;2023-04-24T05:15:10;7.32;;;2.95;;
34144;SDS011;69555;53.014;8.886;2023-04-24T05:17:37;5.18;;;2.63;;
34144;SDS011;69555;53.014;8.886;2023-04-24T05:20:03;2.60;;;2.20;;
34144;SDS011;69555;53.014;8.886;2023-04-24T05:22:32;3.67;;;2.55;;
34144;SDS011;69555;53.014;8.886;2023-04-24T05:24:59;2.65;;;2.40;;
34144;SDS011;69555;53.014;8.886;2023-04-24T05:27:24;6.65;;;2.97;;
34144;SDS011;69555;53.014;8.886;2023-04-24T05:29:51;5.05;;;2.88;;
34144;SDS011;69555;53.014;8.886;2023-04-24T05:32:18;5.93;;;2.95;;
34144;SDS011;69555;53.014;8.886;2023-04-24T05:34:43;3.90;;;3.40;;
34144;SDS011;69555;53.014;8.886;2023-04-24T05:37:10;3.50;;;2.70;;
34144;SDS011;69555;53.014;8.886;2023-04-24T05:39:36;4.05;;;3.45;;
34144;SDS011;69555;53.014;8.886;2023-04-24T05:42:04;4.60;;;3.17;;
34144;SDS011;69555;53.014;8.886;2023-04-24T05:44:31;6.38;;;2.88;;
34144;SDS011;69555;53.014;8.886;2023-04-24T05:46:57;3.33;;;2.72;;
34144;SDS011;69555;53.014;8.886;2023-04-24T05:49:24;3.78;;;3.33;;
34144;SDS011;69555;53.014;8.886;2023-04-24T05:51:51;6.40;;;3.15;;
34144;SDS011;69555;53.014;8.886;2023-04-24T05:54:16;4.47;;;3.67;;
34144;SDS011;69555;53.014;8.886;2023-04-24T05:56:43;4.82;;;3.25;;
34144;SDS011;69555;53.014;8.886;2023-04-24T05:59:08;5.75;;;2.70;;
34144;SDS011;69555;53.014;8.886;2023-04-24T06:01:34;18.15;;;5.32;;
34144;SDS011;69555;53.014;8.886;2023-04-24T06:04:00;5.97;;;4.90;;
34144;SDS011;69555;53.014;8.886;2023-04-24T06:06:26;6.45;;;5.13;;
34144;SDS011;69555;53.014;8.886;2023-04-24T06:08:53;8.20;;;5.60;;
34144;SDS011;69555;53.014;8.886;2023-04-24T06:11:20;8.02;;;6.57;;
34144;SDS011;69555;53.014;8.886;2023-04-24T06:13:47;8.93;;;5.75;;
34144;SDS011;69555;53.014;8.886;2023-04-24T06:16:13;8.30;;;5.45;;
34144;SDS011;69555;53.014;8.886;2023-04-24T06:18:40;12.45;;;8.05;;
34144;SDS011;69555;53.014;8.886;2023-04-24T06:21:07;10.23;;;8.45;;
34144;SDS011;69555;53.014;8.886;2023-04-24T06:23:32;13.95;;;8.40;;
34144;SDS011;69555;53.014;8.886;2023-04-24T06:25:58;9.60;;;8.23;;
34144;SDS011;69555;53.014;8.886;2023-04-24T06:28:25;11.65;;;9.05;;
34144;SDS011;69555;53.014;8.886;2023-04-24T06:30:51;10.93;;;8.93;;
34144;SDS011;69555;53.014;8.886;2023-04-24T06:33:17;11.32;;;8.38;;
34144;SDS011;69555;53.014;8.886;2023-04-24T06:35:44;14.25;;;9.25;;
34144;SDS011;69555;53.014;8.886;2023-04-24T06:38:09;14.02;;;9.95;;
34144;SDS011;69555;53.014;8.886;2023-04-24T06:40:36;11.73;;;9.77;;
34144;SDS011;69555;53.014;8.886;2023-04-24T06:43:02;17.77;;;10.50;;
34144;SDS011;69555;53.014;8.886;2023-04-24T06:45:28;13.15;;;10.23;;
34144;SDS011;69555;53.014;8.886;2023-04-24T06:47:54;12.85;;;9.88;;
34144;SDS011;69555;53.014;8.886;2023-04-24T06:50:21;16.15;;;10.65;;
34144;SDS011;69555;53.014;8.886;2023-04-24T06:52:47;13.73;;;10.55;;
34144;SDS011;69555;53.014;8.886;2023-04-24T06:55:13;16.52;;;11.13;;
34144;SDS011;69555;53.014;8.886;2023-04-24T06:57:41;15.40;;;11.68;;
34144;SDS011;69555;53.014;8.886;2023-04-24T07:00:07;18.67;;;11.32;;
34144;SDS011;69555;53.014;8.886;2023-04-24T07:02:35;15.73;;;11.70;;
34144;SDS011;69555;53.014;8.886;2023-04-24T07:05:01;14.43;;;11.48;;
34144;SDS011;69555;53.014;8.886;2023-04-24T07:07:27;14.82;;;12.35;;
34144;SDS011;69555;53.014;8.886;2023-04-24T07:09:54;20.15;;;12.98;;
34144;SDS011;69555;53.014;8.886;2023-04-24T07:12:21;16.40;;;11.23;;
34144;SDS011;69555;53.014;8.886;2023-04-24T07:14:47;18.05;;;11.90;;
34144;SDS011;69555;53.014;8.886;2023-04-24T07:17:14;14.88;;;11.50;;
34144;SDS011;69555;53.014;8.886;2023-04-24T07:19:40;15.73;;;12.02;;
34144;SDS011;69555;53.014;8.886;2023-04-24T07:22:07;15.13;;;12.25;;
34144;SDS011;69555;53.014;8.886;2023-04-24T07:24:34;17.35;;;12.43;;
34144;SDS011;69555;53.014;8.886;2023-04-24T07:27:01;14.50;;;10.95;;
34144;SDS011;69555;53.014;8.886;2023-04-24T07:29:27;18.17;;;12.23;;
34144;SDS011;69555;53.014;8.886;2023-04-24T07:31:53;15.15;;;11.23;;
34144;SDS011;69555;53.014;8.886;2023-04-24T07:34:19;13.70;;;10.25;;
34144;SDS011;69555;53.014;8.886;2023-04-24T07:36:45;12.52;;;10.20;;
34144;SDS011;69555;53.014;8.886;2023-04-24T07:39:10;11.40;;;9.88;;
34144;SDS011;69555;53.014;8.886;2023-04-24T07:41:37;13.90;;;10.52;;
34144;SDS011;69555;53.014;8.886;2023-04-24T07:44:04;13.15;;;9.43;;
34144;SDS011;69555;53.014;8.886;2023-04-24T07:46:30;11.80;;;9.10;;
34144;SDS011;69555;53.014;8.886;2023-04-24T07:48:57;10.95;;;9.30;;
34144;SDS011;69555;53.014;8.886;2023-04-24T07:51:25;15.18;;;9.98;;
34144;SDS011;69555;53.014;8.886;2023-04-24T07:53:53;12.10;;;8.55;;
34144;SDS011;69555;53.014;8.886;2023-04-24T07:56:23;18.30;;;9.48;;
34144;SDS011;69555;53.014;8.886;2023-04-24T07:58:48;12.30;;;10.32;;
34144;SDS011;69555;53.014;8.886;2023-04-24T08:01:15;13.65;;;10.13;;
34144;SDS011;69555;53.014;8.886;2023-04-24T08:03:42;15.20;;;10.50;;
34144;SDS011;69555;53.014;8.886;2023-04-24T08:06:08;13.18;;;10.30;;
34144;SDS011;69555;53.014;8.886;2023-04-24T08:08:35;15.00;;;9.50;;
34144;SDS011;69555;53.014;8.886;2023-04-24T08:11:01;13.20;;;8.95;;
34144;SDS011;69555;53.014;8.886;2023-04-24T08:13:27;12.50;;;9.38;;
34144;SDS011;69555;53.014;8.886;2023-04-24T08:15:54;13.40;;;9.23;;
34144;SDS011;69555;53.014;8.886;2023-04-24T08:18:22;14.13;;;10.77;;
34144;SDS011;69555;53.014;8.886;2023-04-24T08:20:49;14.75;;;10.48;;
34144;SDS011;69555;53.014;8.886;2023-04-24T08:23:16;15.50;;;10.60;;
34144;SDS011;69555;53.014;8.886;2023-04-24T08:25:42;16.55;;;10.68;;
34144;SDS011;69555;53.014;8.886;2023-04-24T08:28:09;15.82;;;11.35;;
34144;SDS011;69555;53.014;8.886;2023-04-24T08:30:35;15.82;;;11.63;;
34144;SDS011;69555;53.014;8.886;2023-04-24T08:33:01;17.75;;;11.50;;
34144;SDS011;69555;53.014;8.886;2023-04-24T08:35:26;15.80;;;11.48;;
34144;SDS011;69555;53.014;8.886;2023-04-24T08:37:53;16.48;;;12.93;;
34144;SDS011;69555;53.014;8.886;2023-04-24T08:40:18;19.17;;;12.10;;
34144;SDS011;69555;53.014;8.886;2023-04-24T08:42:53;17.10;;;12.52;;
34144;SDS011;69555;53.014;8.886;2023-04-24T08:45:20;15.93;;;12.85;;
34144;SDS011;69555;53.014;8.886;2023-04-24T08:47:47;19.05;;;12.82;;
34144;SDS011;69555;53.014;8.886;2023-04-24T08:50:14;21.92;;;15.88;;
34144;SDS011;69555;53.014;8.886;2023-04-24T08:52:40;20.23;;;12.60;;
34144;SDS011;69555;53.014;8.886;2023-04-24T08:55:08;18.80;;;14.13;;
34144;SDS011;69555;53.014;8.886;2023-04-24T08:57:35;23.38;;;14.38;;
34144;SDS011;69555;53.014;8.886;2023-04-24T09:00:03;27.10;;;15.07;;
34144;SDS011;69555;53.014;8.886;2023-04-24T09:02:29;20.02;;;13.30;;
34144;SDS011;69555;53.014;8.886;2023-04-24T09:04:57;21.35;;;15.10;;
34144;SDS011;69555;53.014;8.886;2023-04-24T09:07:24;22.08;;;15.40;;
34144;SDS011;69555;53.014;8.886;2023-04-24T09:09:51;22.88;;;14.73;;
34144;SDS011;69555;53.014;8.886;2023-04-24T09:12:17;23.63;;;15.32;;
34144;SDS011;69555;53.014;8.886;2023-04-24T09:14:44;22.58;;;15.10;;
34144;SDS011;69555;53.014;8.886;2023-04-24T09:17:11;16.30;;;12.95;;
34144;SDS011;69555;53.014;8.886;2023-04-24T09:19:39;19.90;;;15.30;;
34144;SDS011;69555;53.014;8.886;2023-04-24T09:22:07;18.63;;;14.38;;
34144;SDS011;69555;53.014;8.886;2023-04-24T09:24:35;22.13;;;13.90;;
34144;SDS011;69555;53.014;8.886;2023-04-24T09:27:02;19.08;;;14.60;;
34144;SDS011;69555;53.014;8.886;2023-04-24T09:29:29;19.63;;;14.23;;
34144;SDS011;69555;53.014;8.886;2023-04-24T09:31:58;19.02;;;14.20;;
34144;SDS011;69555;53.014;8.886;2023-04-24T09:34:27;23.60;;;13.07;;
34144;SDS011;69555;53.014;8.886;2023-04-24T09:36:53;17.70;;;13.45;;
34144;SDS011;69555;53.014;8.886;2023-04-24T09:39:19;17.05;;;12.13;;
34144;SDS011;69555;53.014;8.886;2023-04-24T09:41:49;18.33;;;12.40;;
34144;SDS011;69555;53.014;8.886;2023-04-24T09:44:18;15.40;;;13.75;;
34144;SDS011;69555;53.014;8.886;2023-04-24T09:46:54;20.10;;;13.70;;
34144;SDS011;69555;53.014;8.886;2023-04-24T09:49:29;19.10;;;13.57;;
34144;SDS011;69555;53.014;8.886;2023-04-24T09:54:31;16.73;;;9.90;;
34144;SDS011;69555;53.014;8.886;2023-04-24T09:56:56;20.42;;;12.43;;
34144;SDS011;69555;53.014;8.886;2023-04-24T09:59:22;18.35;;;11.05;;
34144;SDS011;69555;53.014;8.886;2023-04-24T10:01:49;16.05;;;11.35;;
34144;SDS011;69555;53.014;8.886;2023-04-24T10:04:24;17.70;;;11.20;;
34144;SDS011;69555;53.014;8.886;2023-04-24T10:06:53;16.02;;;11.20;;
34144;SDS011;69555;53.014;8.886;2023-04-24T10:09:22;20.20;;;11.18;;
34144;SDS011;69555;53.014;8.886;2023-04-24T10:14:18;13.60;;;9.52;;
34144;SDS011;69555;53.014;8.886;2023-04-24T10:16:47;13.75;;;9.77;;
34144;SDS011;69555;53.014;8.886;2023-04-24T10:19:14;14.60;;;9.13;;
34144;SDS011;69555;53.014;8.886;2023-04-24T10:21:42;14.82;;;8.68;;
34144;SDS011;69555;53.014;8.886;2023-04-24T10:24:15;11.02;;;9.35;;
34144;SDS011;69555;53.014;8.886;2023-04-24T10:26:43;13.40;;;8.85;;
34144;SDS011;69555;53.014;8.886;2023-04-24T10:29:13;16.73;;;9.65;;
34144;SDS011;69555;53.014;8.886;2023-04-24T10:31:41;12.73;;;9.93;;
34144;SDS011;69555;53.014;8.886;2023-04-24T10:36:42;16.08;;;11.55;;
34144;SDS011;69555;53.014;8.886;2023-04-24T10:39:14;13.15;;;10.63;;
34144;SDS011;69555;53.014;8.886;2023-04-24T10:41:41;15.50;;;9.32;;
34144;SDS011;69555;53.014;8.886;2023-04-24T10:44:07;11.80;;;9.73;;
34144;SDS011;69555;53.014;8.886;2023-04-24T10:46:34;12.40;;;9.45;;
34144;SDS011;69555;53.014;8.886;2023-04-24T10:49:04;11.13;;;8.55;;
34144;SDS011;69555;53.014;8.886;2023-04-24T10:51:50;10.30;;;8.93;;
34144;SDS011;69555;53.014;8.886;2023-04-24T10:54:24;8.85;;;7.47;;
34144;SDS011;69555;53.014;8.886;2023-04-24T10:59:48;11.32;;;7.68;;
34144;SDS011;69555;53.014;8.886;2023-04-24T11:02:18;9.48;;;8.27;;
34144;SDS011;69555;53.014;8.886;2023-04-24T11:05:04;10.38;;;9.38;;
34144;SDS011;69555;53.014;8.886;2023-04-24T11:08:09;11.27;;;8.40;;
34144;SDS011;69555;53.014;8.886;2023-04-24T11:11:01;10.18;;;7.15;;
34144;SDS011;69555;53.014;8.886;2023-04-24T11:16:30;8.95;;;7.75;;
34144;SDS011;69555;53.014;8.886;2023-04-24T11:19:06;8.48;;;6.78;;
34144;SDS011;69555;53.014;8.886;2023-04-24T11:34:54;8.65;;;5.93;;
34144;SDS011;69555;53.014;8.886;2023-04-24T11:37:44;7.15;;;6.35;;
34144;SDS011;69555;53.014;8.886;2023-04-24T11:40:12;6.82;;;5.55;;
34144;SDS011;69555;53.014;8.886;2023-04-24T11:42:42;7.03;;;5.95;;
34144;SDS011;69555;53.014;8.886;2023-04-24T11:45:11;7.43;;;5.47;;
34144;SDS011;69555;53.014;8.886;2023-04-24T11:47:39;13.23;;;6.40;;
34144;SDS011;69555;53.014;8.886;2023-04-24T11:50:07;6.15;;;5.55;;
34144;SDS011;69555;53.014;8.886;2023-04-24T11:52:38;7.65;;;6.53;;
34144;SDS011;69555;53.014;8.886;2023-04-24T11:55:25;9.38;;;6.40;;
34144;SDS011;69555;53.014;8.886;2023-04-24T11:57:57;6.95;;;6.00;;
34144;SDS011;69555;53.014;8.886;2023-04-24T12:00:25;7.25;;;6.20;;
34144;SDS011;69555;53.014;8.886;2023-04-24T12:03:09;7.18;;;6.25;;
34144;SDS011;69555;53.014;8.886;2023-04-24T12:05:37;6.35;;;5.30;;
34144;SDS011;69555;53.014;8.886;2023-04-24T12:08:05;6.97;;;5.43;;
34144;SDS011;69555;53.014;8.886;2023-04-24T12:10:32;7.70;;;5.88;;
34144;SDS011;69555;53.014;8.886;2023-04-24T12:13:00;7.20;;;5.90;;
34144;SDS011;69555;53.014;8.886;2023-04-24T12:15:27;4.70;;;4.10;;
34144;SDS011;69555;53.014;8.886;2023-04-24T12:17:55;5.13;;;3.97;;
34144;SDS011;69555;53.014;8.886;2023-04-24T12:20:28;7.13;;;4.30;;
34144;SDS011;69555;53.014;8.886;2023-04-24T12:22:59;4.60;;;3.95;;
34144;SDS011;69555;53.014;8.886;2023-04-24T12:25:28;3.47;;;3.17;;
34144;SDS011;69555;53.014;8.886;2023-04-24T12:30:31;6.55;;;3.90;;
34144;SDS011;69555;53.014;8.886;2023-04-24T12:32:59;4.28;;;3.80;;
34144;SDS011;69555;53.014;8.886;2023-04-24T12:35:30;5.60;;;4.75;;
34144;SDS011;69555;53.014;8.886;2023-04-24T12:38:13;4.55;;;3.95;;
34144;SDS011;69555;53.014;8.886;2023-04-24T12:40:42;6.03;;;4.80;;
34144;SDS011;69555;53.014;8.886;2023-04-24T12:43:20;6.10;;;5.50;;
34144;SDS011;69555;53.014;8.886;2023-04-24T12:45:47;5.25;;;4.75;;
34144;SDS011;69555;53.014;8.886;2023-04-24T12:48:14;6.15;;;5.35;;
34144;SDS011;69555;53.014;8.886;2023-04-24T12:50:42;9.18;;;5.63;;
34144;SDS011;69555;53.014;8.886;2023-04-24T12:53:08;6.03;;;5.38;;
34144;SDS011;69555;53.014;8.886;2023-04-24T12:55:34;8.45;;;5.85;;
34144;SDS011;69555;53.014;8.886;2023-04-24T12:57:59;6.53;;;5.50;;
34144;SDS011;69555;53.014;8.886;2023-04-24T13:00:25;8.55;;;5.30;;
34144;SDS011;69555;53.014;8.886;2023-04-24T13:02:51;8.77;;;6.28;;
34144;SDS011;69555;53.014;8.886;2023-04-24T13:05:16;7.20;;;4.07;;
34144;SDS011;69555;53.014;8.886;2023-04-24T13:07:42;6.70;;;4.18;;
34144;SDS011;69555;53.014;8.886;2023-04-24T13:10:07;5.82;;;3.97;;
34144;SDS011;69555;53.014;8.886;2023-04-24T13:12:34;6.25;;;4.32;;
34144;SDS011;69555;53.014;8.886;2023-04-24T13:14:59;11.38;;;7.97;;
34144;SDS011;69555;53.014;8.886;2023-04-24T13:17:25;16.15;;;9.82;;
34144;SDS011;69555;53.014;8.886;2023-04-24T13:19:50;19.15;;;12.48;;
34144;SDS011;69555;53.014;8.886;2023-04-24T13:22:17;15.20;;;11.02;;
34144;SDS011;69555;53.014;8.886;2023-04-24T13:24:43;19.67;;;11.57;;
34144;SDS011;69555;53.014;8.886;2023-04-24T13:27:09;15.80;;;11.57;;
34144;SDS011;69555;53.014;8.886;2023-04-24T13:29:34;20.33;;;11.93;;
34144;SDS011;69555;53.014;8.886;2023-04-24T13:32:00;18.30;;;10.05;;
34144;SDS011;69555;53.014;8.886;2023-04-24T13:34:26;15.10;;;9.20;;
34144;SDS011;69555;53.014;8.886;2023-04-24T13:36:52;10.30;;;6.95;;
34144;SDS011;69555;53.014;8.886;2023-04-24T13:39:19;11.25;;;8.70;;
34144;SDS011;69555;53.014;8.886;2023-04-24T13:41:45;16.67;;;8.00;;
34144;SDS011;69555;53.014;8.886;2023-04-24T13:44:13;23.70;;;9.73;;
34144;SDS011;69555;53.014;8.886;2023-04-24T13:46:39;12.60;;;8.30;;
34144;SDS011;69555;53.014;8.886;2023-04-24T13:49:04;17.45;;;8.77;;
34144;SDS011;69555;53.014;8.886;2023-04-24T13:51:29;13.00;;;7.47;;
34144;SDS011;69555;53.014;8.886;2023-04-24T13:53:55;15.15;;;8.13;;
34144;SDS011;69555;53.014;8.886;2023-04-24T13:56:21;11.43;;;7.53;;
34144;SDS011;69555;53.014;8.886;2023-04-24T13:58:48;17.63;;;10.02;;
34144;SDS011;69555;53.014;8.886;2023-04-24T14:01:15;15.05;;;8.07;;
34144;SDS011;69555;53.014;8.886;2023-04-24T14:03:41;14.40;;;7.38;;
34144;SDS011;69555;53.014;8.886;2023-04-24T14:06:08;11.95;;;9.23;;
34144;SDS011;69555;53.014;8.886;2023-04-24T14:08:34;15.48;;;8.60;;
34144;SDS011;69555;53.014;8.886;2023-04-24T14:11:00;23.48;;;12.32;;
34144;SDS011;69555;53.014;8.886;2023-04-24T14:13:26;14.60;;;8.70;;
34144;SDS011;69555;53.014;8.886;2023-04-24T14:15:52;43.88;;;20.17;;
34144;SDS011;69555;53.014;8.886;2023-04-24T14:18:19;46.58;;;17.42;;
34144;SDS011;69555;53.014;8.886;2023-04-24T14:20:45;25.38;;;9.73;;
34144;SDS011;69555;53.014;8.886;2023-04-24T14:23:11;19.58;;;6.85;;
34144;SDS011;69555;53.014;8.886;2023-04-24T14:25:37;16.30;;;7.80;;
34144;SDS011;69555;53.014;8.886;2023-04-24T14:28:05;22.55;;;9.18;;
34144;SDS011;69555;53.014;8.886;2023-04-24T14:30:31;21.27;;;8.00;;
34144;SDS011;69555;53.014;8.886;2023-04-24T14:32:57;14.85;;;7.45;;
34144;SDS011;69555;53.014;8.886;2023-04-24T14:35:24;17.42;;;7.30;;
34144;SDS011;69555;53.014;8.886;2023-04-24T14:37:51;15.05;;;7.60;;
34144;SDS011;69555;53.014;8.886;2023-04-24T14:40:18;19.20;;;8.43;;
34144;SDS011;69555;53.014;8.886;2023-04-24T14:42:43;19.85;;;7.85;;
34144;SDS011;69555;53.014;8.886;2023-04-24T14:45:09;22.27;;;7.47;;
34144;SDS011;69555;53.014;8.886;2023-04-24T14:47:35;17.35;;;7.07;;
34144;SDS011;69555;53.014;8.886;2023-04-24T14:50:03;10.27;;;6.80;;
34144;SDS011;69555;53.014;8.886;2023-04-24T14:52:29;22.23;;;7.45;;
34144;SDS011;69555;53.014;8.886;2023-04-24T14:54:56;12.90;;;7.18;;
34144;SDS011;69555;53.014;8.886;2023-04-24T14:57:22;13.63;;;7.45;;
34144;SDS011;69555;53.014;8.886;2023-04-24T14:59:49;16.00;;;7.00;;
34144;SDS011;69555;53.014;8.886;2023-04-24T15:02:15;19.65;;;8.40;;
34144;SDS011;69555;53.014;8.886;2023-04-24T15:04:42;8.70;;;5.47;;
34144;SDS011;69555;53.014;8.886;2023-04-24T15:07:08;13.85;;;5.72;;
34144;SDS011;69555;53.014;8.886;2023-04-24T15:09:33;13.70;;;6.68;;